createdAt,value
2022-10-06T00:01:17.696Z,4.45
2022-10-06T00:06:19.291Z,4.10
2022-10-06T00:11:20.815Z,4.15
2022-10-06T00:16:22.425Z,4.40
2022-10-06T00:21:24.108Z,4.25
2022-10-06T00:26:25.659Z,4.63
2022-10-06T00:31:27.252Z,4.15
2022-10-06T00:36:28.828Z,4.40
2022-10-06T00:41:30.369Z,4.18
2022-10-06T00:46:31.985Z,4.20
2022-10-06T00:51:33.536Z,4.18
2022-10-06T00:56:35.092Z,4.50
2022-10-06T01:01:36.702Z,4.35
2022-10-06T01:06:38.304Z,4.45
2022-10-06T01:11:39.822Z,3.65
2022-10-06T01:16:41.341Z,4.03
2022-10-06T01:21:42.882Z,4.53
2022-10-06T01:26:44.427Z,4.30
2022-10-06T01:31:46.008Z,4.00
2022-10-06T01:36:47.521Z,4.13
2022-10-06T01:41:49.059Z,3.92
2022-10-06T01:46:50.614Z,4.10
2022-10-06T01:51:52.159Z,3.90
2022-10-06T01:56:53.685Z,3.60
2022-10-06T02:01:55.445Z,3.50
2022-10-06T02:06:57.108Z,3.60
2022-10-06T02:11:58.627Z,3.67
2022-10-06T02:17:00.147Z,3.72
2022-10-06T02:22:01.637Z,4.28
2022-10-06T02:27:03.160Z,4.15
2022-10-06T02:32:04.702Z,4.05
2022-10-06T02:37:06.218Z,3.88
2022-10-06T02:42:07.764Z,3.83
2022-10-06T02:47:09.296Z,4.28
2022-10-06T02:52:10.789Z,4.18
2022-10-06T02:57:12.321Z,4.28
2022-10-06T03:02:13.937Z,4.20
2022-10-06T03:07:15.552Z,4.32
2022-10-06T03:12:17.089Z,4.22
2022-10-06T03:17:18.624Z,4.03
2022-10-06T03:22:20.159Z,4.57
2022-10-06T03:27:21.687Z,4.40
2022-10-06T03:32:23.210Z,4.28
2022-10-06T03:37:24.736Z,4.40
2022-10-06T03:42:26.250Z,4.05
2022-10-06T03:47:27.757Z,4.28
2022-10-06T03:52:29.306Z,4.00
2022-10-06T03:57:30.840Z,4.32
2022-10-06T04:02:32.372Z,4.40
2022-10-06T04:07:33.927Z,4.55
2022-10-06T04:12:35.454Z,4.10
2022-10-06T04:17:36.978Z,4.68
2022-10-06T04:22:38.502Z,4.78
2022-10-06T04:27:40.029Z,4.95
2022-10-06T04:32:41.582Z,5.07
2022-10-06T04:37:43.090Z,4.93
2022-10-06T04:42:44.639Z,4.32
2022-10-06T04:47:46.176Z,4.65
2022-10-06T04:52:47.702Z,4.97
2022-10-06T04:57:49.241Z,4.65
2022-10-06T05:02:50.792Z,5.07
2022-10-06T05:07:52.319Z,4.90
2022-10-06T05:12:53.858Z,4.78
2022-10-06T05:17:55.456Z,5.30
2022-10-06T05:22:57.002Z,4.82
2022-10-06T05:27:58.562Z,5.53
2022-10-06T05:33:02.387Z,5.20
2022-10-06T05:38:03.902Z,5.55
2022-10-06T05:43:05.440Z,5.25
2022-10-06T05:48:06.995Z,5.15
2022-10-06T05:53:08.538Z,5.28
2022-10-06T05:58:10.102Z,4.53
2022-10-06T06:03:11.652Z,5.25
2022-10-06T06:08:13.185Z,4.55
2022-10-06T06:13:14.753Z,4.25
2022-10-06T06:18:16.295Z,4.15
2022-10-06T06:23:17.831Z,3.80
2022-10-06T06:28:19.421Z,4.13
2022-10-06T06:33:20.979Z,4.15
2022-10-06T06:38:22.510Z,3.97
2022-10-06T06:43:24.004Z,4.55
2022-10-06T06:48:25.524Z,4.15
2022-10-06T06:53:27.042Z,3.72
2022-10-06T06:58:28.900Z,3.80
2022-10-06T07:03:56.129Z,3.83
2022-10-06T07:08:52.417Z,3.60
2022-10-06T07:13:53.936Z,3.90
2022-10-06T07:18:55.461Z,3.78
2022-10-06T07:23:56.999Z,3.70
2022-10-06T07:28:58.522Z,4.07
2022-10-06T07:34:02.058Z,4.32
2022-10-06T07:39:03.661Z,3.78
2022-10-06T07:44:08.046Z,3.97
2022-10-06T07:49:10.922Z,4.00
2022-10-06T07:54:12.429Z,3.97
2022-10-06T07:59:13.977Z,2.97
2022-10-06T08:04:15.498Z,2.97
2022-10-06T08:09:17.004Z,2.60
2022-10-06T08:14:18.521Z,2.30
2022-10-06T08:19:20.047Z,2.95
2022-10-06T08:24:21.877Z,3.50
2022-10-06T08:29:23.607Z,2.33
2022-10-06T08:34:25.147Z,2.70
2022-10-06T08:39:26.682Z,2.75
2022-10-06T08:44:28.209Z,2.58
2022-10-06T08:49:29.732Z,2.60
2022-10-06T08:54:31.250Z,2.40
2022-10-06T08:59:32.755Z,2.53
2022-10-06T09:04:34.277Z,2.53
2022-10-06T09:09:35.812Z,2.95
2022-10-06T09:14:37.365Z,2.60
2022-10-06T09:19:38.882Z,2.40
2022-10-06T09:24:44.771Z,3.20
2022-10-06T09:29:48.583Z,2.65
2022-10-06T09:34:50.109Z,3.20
2022-10-06T09:39:51.634Z,2.92
2022-10-06T09:44:53.168Z,2.75
2022-10-06T09:49:54.969Z,2.88
2022-10-06T09:54:56.563Z,2.78
2022-10-06T09:59:58.676Z,2.97
2022-10-06T10:05:00.554Z,3.35
2022-10-06T10:10:02.088Z,2.92
2022-10-06T10:15:03.649Z,1.90
2022-10-06T10:20:05.202Z,2.00
2022-10-06T10:25:06.752Z,2.63
2022-10-06T10:30:08.292Z,1.98
2022-10-06T10:35:09.817Z,1.30
2022-10-06T10:40:11.336Z,1.75
2022-10-06T10:45:12.874Z,1.23
2022-10-06T10:50:14.489Z,1.00
2022-10-06T10:55:16.027Z,1.10
2022-10-06T11:00:17.558Z,1.02
2022-10-06T11:05:19.091Z,1.00
2022-10-06T11:10:20.692Z,1.10
2022-10-06T11:15:22.224Z,0.80
2022-10-06T11:20:23.760Z,1.10
2022-10-06T11:25:25.288Z,0.80
2022-10-06T11:30:26.833Z,0.90
2022-10-06T11:35:28.344Z,1.10
2022-10-06T11:40:29.958Z,0.80
2022-10-06T11:45:31.479Z,0.70
2022-10-06T11:50:33.033Z,0.70
2022-10-06T11:55:34.538Z,0.90
2022-10-06T12:00:36.095Z,1.00
2022-10-06T12:05:55.833Z,1.10
2022-10-06T12:10:57.998Z,0.80
2022-10-06T12:21:21.319Z,0.88
2022-10-06T12:26:22.900Z,0.90
2022-10-06T12:31:24.500Z,0.80
2022-10-06T12:36:26.012Z,0.90
2022-10-06T12:41:27.561Z,0.98
2022-10-06T12:46:29.179Z,1.05
2022-10-06T12:51:30.776Z,1.02
2022-10-06T12:56:32.312Z,1.10
2022-10-06T13:01:33.882Z,1.17
2022-10-06T13:06:35.430Z,1.20
2022-10-06T13:11:36.953Z,1.05
2022-10-06T13:16:38.550Z,1.10
2022-10-06T13:21:42.171Z,0.85
2022-10-06T13:26:43.725Z,1.15
2022-10-06T13:31:48.899Z,1.00
2022-10-06T13:36:53.628Z,0.90
2022-10-06T13:41:55.187Z,1.33
2022-10-06T13:46:56.757Z,0.93
2022-10-06T13:51:58.294Z,1.08
2022-10-06T13:56:59.817Z,1.00
2022-10-06T14:02:01.418Z,0.90
2022-10-06T14:07:02.956Z,1.00
2022-10-06T14:12:04.482Z,1.20
2022-10-06T14:17:06.005Z,1.40
2022-10-06T14:22:07.544Z,1.40
2022-10-06T14:27:09.081Z,1.30
2022-10-06T14:32:10.645Z,0.90
2022-10-06T14:37:12.192Z,1.30
2022-10-06T14:47:30.033Z,1.20
2022-10-06T14:52:31.569Z,1.23
2022-10-06T14:57:33.109Z,1.33
2022-10-06T15:02:34.702Z,1.48
2022-10-06T15:07:36.265Z,1.33
2022-10-06T15:12:37.778Z,1.40
2022-10-06T15:17:39.324Z,1.60
2022-10-06T15:22:41.035Z,1.77
2022-10-06T15:27:42.571Z,1.85
2022-10-06T15:32:44.079Z,1.38
2022-10-06T15:37:45.624Z,1.63
2022-10-06T15:42:47.145Z,1.60
2022-10-06T15:47:48.641Z,1.70
2022-10-06T15:52:50.143Z,1.55
2022-10-06T15:57:51.653Z,1.30
2022-10-06T16:02:53.225Z,1.40
2022-10-06T16:07:54.795Z,1.40
2022-10-06T16:12:56.331Z,1.20
2022-10-06T16:17:57.857Z,1.45
2022-10-06T16:22:59.382Z,1.80
2022-10-06T16:28:00.984Z,1.90
2022-10-06T16:33:02.557Z,2.22
2022-10-06T16:38:04.088Z,2.03
2022-10-06T16:43:05.644Z,2.95
2022-10-06T16:48:07.185Z,3.00
2022-10-06T16:53:09.875Z,2.90
2022-10-06T16:58:12.927Z,2.83
2022-10-06T17:03:14.441Z,2.40
2022-10-06T17:08:15.963Z,2.33
2022-10-06T17:13:17.478Z,2.50
2022-10-06T17:18:19.015Z,3.00
2022-10-06T17:23:20.541Z,3.40
2022-10-06T17:28:22.129Z,2.90
2022-10-06T17:33:23.703Z,2.85
2022-10-06T17:38:25.232Z,3.45
2022-10-06T17:43:26.790Z,4.10
2022-10-06T17:48:28.327Z,3.92
2022-10-06T17:53:29.853Z,3.75
2022-10-06T17:58:31.391Z,4.05
2022-10-06T18:03:32.923Z,4.43
2022-10-06T18:08:34.463Z,4.70
2022-10-06T18:13:36.002Z,5.80
2022-10-06T18:18:37.606Z,4.95
2022-10-06T18:23:39.165Z,5.68
2022-10-06T18:28:40.713Z,5.43
2022-10-06T18:35:57.588Z,5.25
2022-10-06T18:39:03.788Z,5.53
2022-10-06T18:44:05.335Z,5.45
2022-10-06T18:49:06.866Z,5.75
2022-10-06T18:54:08.442Z,6.28
2022-10-06T18:59:09.974Z,6.82
2022-10-06T19:04:11.508Z,6.47
2022-10-06T19:09:13.037Z,5.55
2022-10-06T19:14:14.547Z,6.63
2022-10-06T19:19:16.089Z,9.35
2022-10-06T19:24:17.636Z,8.35
2022-10-06T19:29:19.198Z,9.85
2022-10-06T19:34:20.714Z,7.22
2022-10-06T19:39:22.217Z,11.70
2022-10-06T19:44:24.322Z,19.80
2022-10-06T19:49:25.866Z,16.40
2022-10-06T19:54:27.434Z,12.68
2022-10-06T19:59:28.951Z,11.63
2022-10-06T20:04:30.552Z,11.88
2022-10-06T20:09:32.161Z,15.52
2022-10-06T20:14:33.698Z,14.30
2022-10-06T20:19:35.267Z,10.43
2022-10-06T20:24:36.811Z,9.40
2022-10-06T20:29:38.427Z,10.07
2022-10-06T20:34:40.093Z,10.48
2022-10-06T20:39:41.707Z,10.95
2022-10-06T20:44:43.362Z,10.95
2022-10-06T20:49:44.906Z,10.13
2022-10-06T20:54:46.464Z,10.40
2022-10-06T20:59:48.009Z,11.57
2022-10-06T21:04:49.577Z,10.48
2022-10-06T21:09:52.347Z,9.70
2022-10-06T21:14:54.031Z,11.15
2022-10-06T21:19:55.573Z,10.27
2022-10-06T21:24:57.141Z,10.35
2022-10-06T21:29:58.715Z,9.90
2022-10-06T21:35:00.292Z,11.40
2022-10-06T21:40:02.719Z,11.02
2022-10-06T21:45:04.387Z,10.35
2022-10-06T21:50:05.947Z,9.80
2022-10-06T21:55:07.508Z,10.90
2022-10-06T22:00:09.067Z,12.15
2022-10-06T22:05:10.645Z,12.55
2022-10-06T22:10:12.229Z,11.27
2022-10-06T22:15:13.792Z,11.80
2022-10-06T22:20:15.384Z,12.05
2022-10-06T22:25:16.957Z,11.43
2022-10-06T22:30:18.529Z,11.43
2022-10-06T22:35:20.105Z,11.52
2022-10-06T22:40:21.671Z,11.80
2022-10-06T22:45:23.226Z,14.48
2022-10-06T22:50:24.797Z,19.17
2022-10-06T22:55:26.389Z,20.23
2022-10-06T23:00:28.012Z,20.80
2022-10-06T23:05:29.593Z,18.42
2022-10-06T23:10:31.158Z,17.65
2022-10-06T23:15:32.705Z,17.70
2022-10-06T23:20:34.276Z,18.10
2022-10-06T23:25:35.845Z,16.17
2022-10-06T23:30:37.413Z,16.73
2022-10-06T23:35:38.953Z,15.70
2022-10-06T23:40:40.519Z,17.17
2022-10-06T23:45:42.173Z,17.42
2022-10-06T23:50:43.774Z,16.50
2022-10-06T23:55:45.364Z,15.98
